createdAt,value
2022-12-13T00:01:44.206Z,33.20
2022-12-13T00:04:12.252Z,35.20
2022-12-13T00:06:39.391Z,40.40
2022-12-13T00:09:06.813Z,34.50
2022-12-13T00:11:34.029Z,33.00
2022-12-13T00:14:01.957Z,33.30
2022-12-13T00:16:29.129Z,29.90
2022-12-13T00:18:59.979Z,25.10
2022-12-13T00:21:31.828Z,24.00
2022-12-13T00:24:00.317Z,11.30
2022-12-13T00:26:30.179Z,19.10
2022-12-13T00:29:02.166Z,7.80
2022-12-13T00:34:19.594Z,1.00
2022-12-13T00:36:46.939Z,1.00
2022-12-13T00:39:19.098Z,1.00
2022-12-13T00:41:47.550Z,1.00
2022-12-13T00:44:15.366Z,1.00
2022-12-13T00:46:47.039Z,1.00
2022-12-13T00:49:14.900Z,1.00
2022-12-13T00:51:41.934Z,2.10
2022-12-13T00:54:10.594Z,13.20
2022-12-13T00:56:38.495Z,13.30
2022-12-13T00:59:05.965Z,7.20
2022-12-13T01:01:36.511Z,6.10
2022-12-13T01:04:06.094Z,2.00
2022-12-13T01:06:39.202Z,1.00
2022-12-13T01:09:12.441Z,1.90
2022-12-13T01:11:40.053Z,1.00
2022-12-13T01:14:07.553Z,6.40
2022-12-13T01:16:34.675Z,13.50
2022-12-13T01:19:02.131Z,16.40
2022-12-13T01:21:29.811Z,17.50
2022-12-13T01:24:03.387Z,26.20
2022-12-13T01:26:31.256Z,29.60
2022-12-13T01:28:58.886Z,29.60
2022-12-13T01:31:26.560Z,31.50
2022-12-13T01:33:53.982Z,38.90
2022-12-13T01:36:27.487Z,51.30
2022-12-13T01:38:58.786Z,50.70
2022-12-13T01:41:28.216Z,45.90
2022-12-13T01:44:03.032Z,44.40
2022-12-13T01:46:32.780Z,42.00
2022-12-13T01:49:19.090Z,42.20
2022-12-13T01:52:00.216Z,36.80
2022-12-13T01:54:34.383Z,43.70
2022-12-13T01:57:05.743Z,38.20
2022-12-13T01:59:35.543Z,29.00
2022-12-13T02:02:02.850Z,30.80
2022-12-13T02:04:44.262Z,29.50
2022-12-13T02:07:23.160Z,29.80
2022-12-13T02:09:57.665Z,29.00
2022-12-13T02:12:29.450Z,24.50
2022-12-13T02:15:00.619Z,24.40
2022-12-13T02:17:45.416Z,11.60
2022-12-13T02:20:38.344Z,3.00
2022-12-13T02:23:35.036Z,1.00
2022-12-13T02:26:46.701Z,1.00
2022-12-13T02:29:38.417Z,1.00
2022-12-13T02:32:15.658Z,7.40
2022-12-13T02:34:51.338Z,2.70
2022-12-13T02:37:23.713Z,1.00
2022-12-13T02:40:00.909Z,5.90
2022-12-13T02:42:36.450Z,13.30
2022-12-13T02:45:18.686Z,19.60
2022-12-13T02:47:49.865Z,20.60
2022-12-13T02:50:17.823Z,27.00
2022-12-13T02:52:46.644Z,32.00
2022-12-13T02:55:16.766Z,34.90
2022-12-13T02:57:46.343Z,37.10
2022-12-13T03:00:44.070Z,39.90
2022-12-13T03:03:42.626Z,41.70
2022-12-13T03:06:33.557Z,38.30
2022-12-13T03:09:25.471Z,44.20
2022-12-13T03:12:29.065Z,45.20
2022-12-13T03:15:18.570Z,52.20
2022-12-13T03:18:01.981Z,53.30
2022-12-13T03:20:31.223Z,53.60
2022-12-13T03:22:59.245Z,50.50
2022-12-13T03:25:31.514Z,52.40
2022-12-13T03:28:02.085Z,50.70
2022-12-13T03:30:33.932Z,50.10
2022-12-13T03:33:01.639Z,50.00
2022-12-13T03:35:34.444Z,50.50
2022-12-13T03:38:21.523Z,52.00
2022-12-13T03:41:06.456Z,51.60
2022-12-13T03:43:33.770Z,54.50
2022-12-13T03:46:01.366Z,59.30
2022-12-13T03:48:28.482Z,59.30
2022-12-13T03:50:56.795Z,59.90
2022-12-13T03:53:33.512Z,60.00
2022-12-13T03:56:04.125Z,62.10
2022-12-13T03:58:35.839Z,65.70
2022-12-13T04:01:12.075Z,67.00
2022-12-13T04:03:40.974Z,69.70
2022-12-13T04:06:09.432Z,71.10
2022-12-13T04:08:38.323Z,80.20
2022-12-13T04:11:25.343Z,99.90
2022-12-13T04:13:53.837Z,99.90
2022-12-13T04:16:21.930Z,93.40
2022-12-13T04:18:48.974Z,79.80
2022-12-13T04:21:16.657Z,78.70
2022-12-13T04:23:43.800Z,80.00
2022-12-13T04:26:11.242Z,79.20
2022-12-13T04:28:38.382Z,79.10
2022-12-13T04:31:22.397Z,81.10
2022-12-13T04:33:55.101Z,81.10
2022-12-13T04:36:32.097Z,86.80
2022-12-13T04:39:22.288Z,89.30
2022-12-13T04:41:51.912Z,88.30
2022-12-13T04:44:28.747Z,88.60
2022-12-13T04:47:01.097Z,88.70
2022-12-13T04:49:30.217Z,91.10
2022-12-13T04:52:01.125Z,89.60
2022-12-13T04:54:36.663Z,91.70
2022-12-13T04:57:10.040Z,91.20
2022-12-13T04:59:38.182Z,91.40
2022-12-13T05:02:06.916Z,91.60
2022-12-13T05:04:34.497Z,89.00
2022-12-13T05:07:34.288Z,89.80
2022-12-13T05:10:09.615Z,89.40
2022-12-13T05:12:37.104Z,87.90
2022-12-13T05:15:04.846Z,85.20
2022-12-13T05:17:44.602Z,82.70
2022-12-13T05:20:12.168Z,82.30
2022-12-13T05:22:39.437Z,84.70
2022-12-13T05:25:30.362Z,85.20
2022-12-13T05:27:57.904Z,84.70
2022-12-13T05:30:24.967Z,83.60
2022-12-13T05:32:52.483Z,83.30
2022-12-13T05:35:22.797Z,85.20
2022-12-13T05:37:53.358Z,84.30
2022-12-13T05:40:27.257Z,82.30
2022-12-13T05:43:00.871Z,82.60
2022-12-13T05:45:30.639Z,85.70
2022-12-13T05:47:58.332Z,85.00
2022-12-13T05:50:25.909Z,90.30
2022-12-13T05:52:54.400Z,92.50
2022-12-13T05:55:21.755Z,90.90
2022-12-13T05:57:50.390Z,90.00
2022-12-13T06:00:29.101Z,90.20
2022-12-13T06:03:00.471Z,90.50
2022-12-13T06:05:30.063Z,91.40
2022-12-13T06:07:58.498Z,91.10
2022-12-13T06:10:34.383Z,90.60
2022-12-13T06:13:21.686Z,88.80
2022-12-13T06:16:01.677Z,89.10
2022-12-13T06:18:33.942Z,85.50
2022-12-13T06:21:05.132Z,82.40
2022-12-13T06:23:34.094Z,82.40
2022-12-13T06:26:07.737Z,81.80
2022-12-13T06:28:35.203Z,78.20
2022-12-13T06:31:03.567Z,76.10
2022-12-13T06:33:35.506Z,72.80
2022-12-13T06:36:03.680Z,72.20
2022-12-13T06:38:32.702Z,64.30
2022-12-13T06:41:14.256Z,63.80
2022-12-13T06:43:46.408Z,64.50
2022-12-13T06:46:14.930Z,55.60
2022-12-13T06:48:42.182Z,60.20
2022-12-13T06:51:09.721Z,60.00
2022-12-13T06:53:39.508Z,49.60
2022-12-13T06:56:12.059Z,39.70
2022-12-13T06:58:40.521Z,45.70
2022-12-13T07:01:24.218Z,46.10
2022-12-13T07:03:56.268Z,42.90
2022-12-13T07:06:25.254Z,59.40
2022-12-13T07:08:57.177Z,45.30
2022-12-13T07:11:29.753Z,33.50
2022-12-13T07:13:57.620Z,30.00
2022-12-13T07:16:25.317Z,30.40
2022-12-13T07:19:01.358Z,33.70
2022-12-13T07:21:30.274Z,36.00
2022-12-13T07:23:57.736Z,34.40
2022-12-13T07:26:25.222Z,26.20
2022-12-13T07:28:55.394Z,23.90
2022-12-13T07:31:24.682Z,21.70
2022-12-13T07:33:52.973Z,28.20
2022-12-13T07:36:22.439Z,30.90
2022-12-13T07:38:54.988Z,29.40
2022-12-13T07:41:24.278Z,21.60
2022-12-13T07:43:55.377Z,18.60
2022-12-13T07:46:32.005Z,17.30
2022-12-13T07:49:04.967Z,15.10
2022-12-13T07:51:34.999Z,9.10
2022-12-13T07:54:06.953Z,19.90
2022-12-13T07:56:35.242Z,13.50
2022-12-13T07:59:02.824Z,8.50
2022-12-13T08:01:34.690Z,11.50
2022-12-13T08:04:03.553Z,10.70
2022-12-13T08:06:34.455Z,13.10
2022-12-13T08:09:02.164Z,18.00
2022-12-13T08:11:29.581Z,3.10
2022-12-13T08:13:59.731Z,3.10
2022-12-13T08:16:29.339Z,3.30
2022-12-13T08:19:02.191Z,1.00
2022-12-13T08:21:54.059Z,1.00
2022-12-13T08:24:43.976Z,1.00
2022-12-13T08:27:18.515Z,1.00
2022-12-13T08:29:45.834Z,1.00
2022-12-13T08:32:13.665Z,99.90
2022-12-13T08:34:41.882Z,99.90
2022-12-13T08:37:09.091Z,1.00
2022-12-13T08:39:38.359Z,1.00
2022-12-13T08:42:15.097Z,99.90
2022-12-13T08:44:49.914Z,99.90
2022-12-13T08:47:23.461Z,99.90
2022-12-13T08:49:56.150Z,99.90
2022-12-13T08:52:40.810Z,99.90
2022-12-13T08:55:14.233Z,99.90
2022-12-13T08:57:42.909Z,99.90
2022-12-13T09:00:15.849Z,99.90
2022-12-13T09:02:43.535Z,99.90
2022-12-13T09:05:12.929Z,99.90
2022-12-13T09:07:41.666Z,99.90
2022-12-13T09:10:26.466Z,99.90
2022-12-13T09:13:01.376Z,99.90
2022-12-13T09:19:01.843Z,99.90
2022-12-13T09:21:49.432Z,99.90
2022-12-13T09:24:24.142Z,99.90
2022-12-13T09:26:57.345Z,99.90
2022-12-13T09:29:25.047Z,1.00
2022-12-13T09:31:53.489Z,1.00
2022-12-13T09:34:20.743Z,1.00
2022-12-13T09:36:48.101Z,1.00
2022-12-13T09:39:16.304Z,1.00
2022-12-13T09:41:50.595Z,99.90
2022-12-13T09:44:32.544Z,99.90
2022-12-13T10:00:01.240Z,1.00
2022-12-13T10:02:49.336Z,99.90
2022-12-13T10:05:34.165Z,99.90
2022-12-13T10:08:16.754Z,1.00
2022-12-13T10:10:45.093Z,99.90
2022-12-13T10:13:36.623Z,99.90
2022-12-13T10:16:38.627Z,99.90
2022-12-13T10:19:29.369Z,99.90
2022-12-13T10:22:01.610Z,99.90
2022-12-13T10:24:47.723Z,99.90
2022-12-13T10:27:20.415Z,99.90
2022-12-13T10:30:00.211Z,99.90
2022-12-13T10:32:28.140Z,99.90
2022-12-13T10:34:55.719Z,99.90
2022-12-13T10:37:31.316Z,99.90
2022-12-13T10:39:59.354Z,99.90
2022-12-13T10:42:30.666Z,99.90
2022-12-13T10:45:15.565Z,99.90
2022-12-13T10:47:45.544Z,99.90
2022-12-13T10:50:27.088Z,99.90
2022-12-13T10:52:56.004Z,99.90
2022-12-13T10:55:24.060Z,99.90
2022-12-13T10:57:54.069Z,99.90
2022-12-13T11:00:38.977Z,99.90
2022-12-13T11:03:06.849Z,80.80
2022-12-13T11:05:37.957Z,53.40
2022-12-13T11:08:23.825Z,84.80
2022-12-13T11:11:06.453Z,99.90
2022-12-13T11:13:46.308Z,99.90
2022-12-13T11:16:41.841Z,99.90
2022-12-13T11:19:21.145Z,99.90
2022-12-13T11:21:54.433Z,99.90
2022-12-13T11:24:26.026Z,99.90
2022-12-13T11:27:23.055Z,99.90
2022-12-13T11:29:56.530Z,99.90
2022-12-13T11:32:57.462Z,99.90
2022-12-13T11:35:33.201Z,99.90
2022-12-13T11:38:11.235Z,99.90
2022-12-13T11:40:43.012Z,99.90
2022-12-13T11:43:25.600Z,75.90
2022-12-13T11:45:56.477Z,99.90
2022-12-13T11:48:40.132Z,78.90
2022-12-13T11:51:13.520Z,99.90
2022-12-13T11:54:24.081Z,99.90
2022-12-13T11:57:00.765Z,1.00
2022-12-13T11:59:44.673Z,60.30
2022-12-13T12:02:17.425Z,99.90
2022-12-13T12:04:56.607Z,99.90
2022-12-13T12:08:12.651Z,89.90
2022-12-13T12:10:45.654Z,99.90
2022-12-13T12:13:21.458Z,1.00
2022-12-13T12:16:13.123Z,99.90
2022-12-13T12:18:40.290Z,99.90
2022-12-13T12:21:19.407Z,51.90
2022-12-13T12:23:56.110Z,99.90
2022-12-13T12:26:41.265Z,99.90
2022-12-13T12:29:45.310Z,37.70
2022-12-13T12:32:41.479Z,7.00
2022-12-13T12:35:27.246Z,1.00
2022-12-13T12:38:03.497Z,99.90
2022-12-13T12:41:14.642Z,99.90
2022-12-13T12:43:37.768Z,99.90
2022-12-13T12:46:30.986Z,99.90
2022-12-13T12:49:02.714Z,82.20
2022-12-13T12:51:53.907Z,99.90
2022-12-13T12:54:44.182Z,99.90
2022-12-13T12:57:29.961Z,99.90
2022-12-13T13:00:13.220Z,96.50
2022-12-13T13:02:51.695Z,99.90
2022-12-13T13:05:32.578Z,99.90
2022-12-13T13:08:34.724Z,53.40
2022-12-13T13:11:05.317Z,99.90
2022-12-13T13:14:01.868Z,38.20
2022-12-13T13:16:44.609Z,99.90
2022-12-13T13:19:12.151Z,99.90
2022-12-13T13:21:47.361Z,99.90
2022-12-13T13:24:20.195Z,99.90
2022-12-13T13:26:55.629Z,99.90
2022-12-13T13:29:28.645Z,99.90
2022-12-13T13:32:05.155Z,99.90
2022-12-13T13:34:34.882Z,99.90
2022-12-13T13:37:04.007Z,99.90
2022-12-13T13:39:34.085Z,99.90
2022-12-13T13:42:21.102Z,99.90
2022-12-13T13:44:51.665Z,99.90
2022-12-13T13:47:27.324Z,99.90
2022-12-13T13:50:12.605Z,99.90
2022-12-13T13:53:24.472Z,99.90
2022-12-13T13:56:55.084Z,99.90
2022-12-13T14:00:00.748Z,99.90
2022-12-13T14:03:01.367Z,99.90
2022-12-13T14:05:59.718Z,99.90
2022-12-13T14:08:51.229Z,99.90
2022-12-13T14:11:47.266Z,99.90
2022-12-13T14:14:49.999Z,99.90
2022-12-13T14:18:10.315Z,99.90
2022-12-13T14:20:46.778Z,99.90
2022-12-13T14:23:21.835Z,99.90
2022-12-13T14:25:55.558Z,99.90
2022-12-13T14:28:39.537Z,99.90
2022-12-13T14:31:22.313Z,99.90
2022-12-13T14:33:55.918Z,99.90
2022-12-13T14:36:35.598Z,99.90
2022-12-13T14:39:24.834Z,99.90
2022-12-13T14:41:56.754Z,99.90
2022-12-13T14:44:31.176Z,99.90
2022-12-13T14:47:11.126Z,99.90
2022-12-13T14:49:41.722Z,99.90
2022-12-13T14:52:26.730Z,99.90
2022-12-13T14:55:00.730Z,99.90
2022-12-13T14:57:30.647Z,99.90
2022-12-13T15:00:00.382Z,99.90
2022-12-13T15:02:32.989Z,99.90
2022-12-13T15:05:03.889Z,99.90
2022-12-13T15:07:41.718Z,99.90
2022-12-13T15:10:14.999Z,99.90
2022-12-13T15:12:44.008Z,99.90
2022-12-13T15:15:34.650Z,99.90
2022-12-13T15:18:18.543Z,99.90
2022-12-13T15:20:49.897Z,99.90
2022-12-13T15:23:48.602Z,99.90
2022-12-13T15:26:28.509Z,99.90
2022-12-13T15:29:00.803Z,99.90
2022-12-13T15:31:28.834Z,99.90
2022-12-13T15:34:28.738Z,99.90
2022-12-13T15:37:03.108Z,99.90
2022-12-13T15:39:31.260Z,99.90
2022-12-13T15:41:59.595Z,99.90
2022-12-13T15:44:33.999Z,99.90
2022-12-13T15:47:28.784Z,1.00
2022-12-13T15:50:01.372Z,1.00
2022-12-13T15:52:37.097Z,1.00
2022-12-13T15:55:07.257Z,1.00
2022-12-13T15:57:56.131Z,1.00
2022-12-13T16:00:29.076Z,99.90
2022-12-13T16:03:15.219Z,99.90
2022-12-13T16:05:50.086Z,99.90
2022-12-13T16:08:32.409Z,99.90
2022-12-13T16:11:00.412Z,99.90
2022-12-13T16:13:37.263Z,99.90
2022-12-13T16:16:29.832Z,99.90
2022-12-13T16:19:00.837Z,99.90
2022-12-13T16:21:28.678Z,99.90
2022-12-13T16:23:56.231Z,99.90
2022-12-13T16:26:26.574Z,99.90
2022-12-13T16:28:58.641Z,99.90
2022-12-13T16:31:31.289Z,99.90
2022-12-13T16:33:58.803Z,99.90
2022-12-13T16:36:26.370Z,99.90
2022-12-13T16:38:54.135Z,99.90
2022-12-13T16:41:22.287Z,99.90
2022-12-13T16:43:56.042Z,99.90
2022-12-13T16:47:14.154Z,99.90
2022-12-13T16:49:30.429Z,99.90
2022-12-13T16:51:58.205Z,99.90
2022-12-13T16:54:26.545Z,1.00
2022-12-13T16:56:54.504Z,1.00
2022-12-13T16:59:27.223Z,99.90
2022-12-13T17:05:13.356Z,1.00
2022-12-13T17:07:40.847Z,1.00
2022-12-13T17:10:11.923Z,99.90
2022-12-13T17:12:45.043Z,99.90
2022-12-13T17:15:16.164Z,99.90
2022-12-13T17:17:46.404Z,99.90
2022-12-13T17:20:16.849Z,99.90
2022-12-13T17:22:45.587Z,1.00
2022-12-13T17:25:14.069Z,99.90
2022-12-13T17:28:07.718Z,1.00
2022-12-13T17:34:00.699Z,99.90
2022-12-13T17:36:28.256Z,99.90
2022-12-13T17:38:56.023Z,99.90
2022-12-13T17:41:24.560Z,99.90
2022-12-13T17:43:51.955Z,1.00
2022-12-13T17:46:20.023Z,1.00
2022-12-13T17:48:48.686Z,99.90
2022-12-13T17:51:16.383Z,1.00
2022-12-13T17:53:44.682Z,1.00
2022-12-13T17:56:19.384Z,1.00
2022-12-13T17:58:47.887Z,1.00
2022-12-13T18:01:21.651Z,99.90
2022-12-13T18:03:51.363Z,1.00
2022-12-13T18:06:19.331Z,1.00
2022-12-13T18:08:47.919Z,1.00
2022-12-13T18:11:32.950Z,1.00
2022-12-13T18:14:02.599Z,1.00
2022-12-13T18:16:36.277Z,1.00
2022-12-13T18:19:07.054Z,1.00
2022-12-13T18:21:35.808Z,1.00
2022-12-13T18:24:03.262Z,1.00
2022-12-13T18:26:31.222Z,1.00
2022-12-13T18:28:58.442Z,1.00
2022-12-13T18:31:26.215Z,1.00
2022-12-13T18:33:54.640Z,1.00
2022-12-13T18:36:26.262Z,1.00
2022-12-13T18:38:58.095Z,1.00
2022-12-13T18:41:30.773Z,1.00
2022-12-13T18:44:09.418Z,1.00
2022-12-13T18:46:40.429Z,1.00
2022-12-13T18:49:10.660Z,1.00
2022-12-13T18:51:38.166Z,1.00
2022-12-13T18:54:05.282Z,1.00
2022-12-13T18:56:32.645Z,1.00
2022-12-13T18:58:59.715Z,1.00
2022-12-13T19:01:28.029Z,1.00
2022-12-13T19:03:55.394Z,1.00
2022-12-13T19:06:26.209Z,1.00
2022-12-13T19:08:56.329Z,1.00
2022-12-13T19:11:26.109Z,1.00
2022-12-13T19:13:53.408Z,1.00
2022-12-13T19:16:22.798Z,1.00
2022-12-13T19:18:52.567Z,1.00
2022-12-13T19:21:21.678Z,1.00
2022-12-13T19:23:55.868Z,1.00
2022-12-13T19:26:25.399Z,1.00
2022-12-13T19:28:52.511Z,1.00
2022-12-13T19:31:20.714Z,1.00
2022-12-13T19:33:50.096Z,1.00
2022-12-13T19:36:18.572Z,1.00
2022-12-13T19:38:48.045Z,1.00
2022-12-13T19:41:18.680Z,1.00
2022-12-13T19:43:52.565Z,1.00
2022-12-13T19:46:21.146Z,1.00
2022-12-13T19:48:51.346Z,1.00
2022-12-13T19:51:18.893Z,1.00
2022-12-13T19:53:46.320Z,1.00
2022-12-13T19:56:17.711Z,1.00
2022-12-13T19:58:46.765Z,1.00
2022-12-13T20:01:14.890Z,1.00
2022-12-13T20:03:45.230Z,1.00
2022-12-13T20:06:16.065Z,1.00
2022-12-13T20:08:43.439Z,1.00
2022-12-13T20:11:14.925Z,1.00
2022-12-13T20:13:42.299Z,1.00
2022-12-13T20:16:16.161Z,1.00
2022-12-13T20:18:43.286Z,1.00
2022-12-13T20:21:12.858Z,1.00
2022-12-13T20:23:42.003Z,1.00
2022-12-13T20:26:22.010Z,1.00
2022-12-13T20:28:50.224Z,1.00
2022-12-13T20:31:21.356Z,1.00
2022-12-13T20:33:48.855Z,1.00
2022-12-13T20:36:24.648Z,1.00
2022-12-13T20:38:57.278Z,1.00
2022-12-13T20:41:26.710Z,1.00
2022-12-13T20:43:55.960Z,1.00
2022-12-13T20:46:24.971Z,1.00
2022-12-13T20:48:57.515Z,1.00
2022-12-13T20:51:27.835Z,99.90
2022-12-13T20:53:56.943Z,1.00
2022-12-13T20:56:34.388Z,1.00
2022-12-13T20:59:03.606Z,1.00
2022-12-13T21:01:33.436Z,1.00
2022-12-13T21:04:02.149Z,1.00
2022-12-13T21:06:33.114Z,1.00
2022-12-13T21:09:02.808Z,1.00
2022-12-13T21:11:32.988Z,99.90
2022-12-13T21:14:08.899Z,1.00
2022-12-13T21:16:45.674Z,1.00
2022-12-13T21:19:19.417Z,99.90
2022-12-13T21:21:47.638Z,1.00
2022-12-13T21:24:16.068Z,1.00
2022-12-13T21:26:44.789Z,1.00
2022-12-13T21:29:13.196Z,1.00
2022-12-13T21:31:50.652Z,1.00
2022-12-13T21:34:19.315Z,1.00
2022-12-13T21:36:54.401Z,1.00
2022-12-13T21:39:24.715Z,1.00
2022-12-13T21:41:52.470Z,1.00
2022-12-13T21:44:20.236Z,1.00
2022-12-13T21:49:34.729Z,1.00
2022-12-13T21:52:02.106Z,1.00
2022-12-13T21:54:29.158Z,1.00
2022-12-13T21:57:16.176Z,1.00
2022-12-13T21:59:43.402Z,99.90
2022-12-13T22:02:19.286Z,1.00
2022-12-13T22:04:52.825Z,1.00
2022-12-13T22:07:33.756Z,99.90
2022-12-13T22:10:03.527Z,99.90
2022-12-13T22:12:37.098Z,1.00
2022-12-13T22:15:10.625Z,1.00
2022-12-13T22:17:39.832Z,99.90
2022-12-13T22:20:12.640Z,99.90
2022-12-13T22:22:42.646Z,1.00
2022-12-13T22:25:10.495Z,1.00
2022-12-13T22:27:41.276Z,99.90
2022-12-13T22:30:10.544Z,99.90
2022-12-13T22:32:38.082Z,99.90
2022-12-13T22:35:06.859Z,99.90
2022-12-13T22:37:34.213Z,1.00
2022-12-13T22:40:01.199Z,1.00
2022-12-13T22:42:28.687Z,1.00
2022-12-13T22:44:56.966Z,1.00
2022-12-13T22:47:24.675Z,1.00
2022-12-13T22:49:52.422Z,1.00
2022-12-13T22:52:21.529Z,1.00
2022-12-13T22:54:48.613Z,1.00
2022-12-13T22:57:15.971Z,1.00
2022-12-13T22:59:43.162Z,1.00
2022-12-13T23:02:11.138Z,1.00
2022-12-13T23:04:38.706Z,1.00
2022-12-13T23:07:06.175Z,1.00
2022-12-13T23:09:33.263Z,1.00
2022-12-13T23:12:19.015Z,1.00
2022-12-13T23:14:46.001Z,1.00
2022-12-13T23:17:14.653Z,1.00
2022-12-13T23:19:49.989Z,1.00
2022-12-13T23:22:24.279Z,1.00
2022-12-13T23:24:52.695Z,1.00
2022-12-13T23:27:22.286Z,1.00
2022-12-13T23:29:51.101Z,1.00
2022-12-13T23:32:18.785Z,1.00
2022-12-13T23:34:45.887Z,4.10
2022-12-13T23:37:14.080Z,7.50
2022-12-13T23:39:41.667Z,10.10
2022-12-13T23:42:09.078Z,9.30
2022-12-13T23:44:36.480Z,8.10
2022-12-13T23:47:03.878Z,1.00
2022-12-13T23:49:30.966Z,4.50
2022-12-13T23:51:58.370Z,15.80
2022-12-13T23:54:26.737Z,19.80
2022-12-13T23:56:54.186Z,19.20
2022-12-13T23:59:21.194Z,19.50
